Delta Virtual Airport Information Service

Tel Aviv Ben Gurion International Airport

ICAO: LLBG Country: Israel
Latitude: 32.0114 Longitude: 34.8867
Latest Arrival : ELY318 (EGLL-LLBG) Latest Departure : AFR1121 (LLBG-LFPG)


WX CaptureLIVE
Data provided by noaa.gov | Fetched at 11:41:58

METAR : LLBG 281620Z 34010KT 9999 FEW035 22/13 Q1015 NOSIG

TAF : LLBG 281104Z 2812/2912 30012KT 9999 SCT035 BECMG 2815/2817 32005KT SCT025 TEMPO 2823/2906 VRB03KT BKN025 BECMG 2907/2909 30012KT FEW040 TX25/2812Z TN19/2903Z


Runway Data for LLBG
Data provided by openaviationdata.com

Runway ID Mag Var Hdg Length Elevation Surface ILS Freq ILS Id ILS Slope
3 3 25° 5848 ft 135 ft Asphalt -- -- --
8 3 76° 11949 ft 135 ft Asphalt -- -- --
12 3 118° 10134 ft 135 ft Asphalt 110.3 BG 3
21 3 205° 5848 ft 135 ft Asphalt -- -- --
26 3 256° 11949 ft 135 ft Asphalt 108.7 BA 3
30 3 298° 10134 ft 135 ft Asphalt -- -- --

Tel Aviv Ben Gurion International Airport, Israel
Use only for reference purposes



Not for navigational purposes.